sensor_id;sensor_type;location;lat;lon;timestamp;P1;durP1;ratioP1;P2;durP2;ratioP2
22571;SDS011;11452;53.368;14.658;2024-03-07T00:04:18;23.10;;;16.53;;
22571;SDS011;11452;53.368;14.658;2024-03-07T00:09:24;23.03;;;14.07;;
22571;SDS011;11452;53.368;14.658;2024-03-07T00:14:31;25.40;;;15.53;;
22571;SDS011;11452;53.368;14.658;2024-03-07T00:19:38;31.57;;;17.43;;
22571;SDS011;11452;53.368;14.658;2024-03-07T00:24:44;30.17;;;18.93;;
22571;SDS011;11452;53.368;14.658;2024-03-07T00:29:51;28.27;;;18.73;;
22571;SDS011;11452;53.368;14.658;2024-03-07T00:34:57;26.37;;;16.17;;
22571;SDS011;11452;53.368;14.658;2024-03-07T00:40:04;22.27;;;14.07;;
22571;SDS011;11452;53.368;14.658;2024-03-07T00:45:11;20.13;;;13.73;;
22571;SDS011;11452;53.368;14.658;2024-03-07T00:50:17;25.10;;;15.20;;
22571;SDS011;11452;53.368;14.658;2024-03-07T00:55:22;25.70;;;17.60;;
22571;SDS011;11452;53.368;14.658;2024-03-07T01:00:28;28.17;;;17.60;;
22571;SDS011;11452;53.368;14.658;2024-03-07T01:05:34;27.70;;;17.50;;
22571;SDS011;11452;53.368;14.658;2024-03-07T01:10:40;31.90;;;19.17;;
22571;SDS011;11452;53.368;14.658;2024-03-07T01:15:46;29.60;;;18.93;;
22571;SDS011;11452;53.368;14.658;2024-03-07T01:20:52;26.93;;;17.50;;
22571;SDS011;11452;53.368;14.658;2024-03-07T01:25:58;26.20;;;17.53;;
22571;SDS011;11452;53.368;14.658;2024-03-07T01:31:04;22.03;;;16.13;;
22571;SDS011;11452;53.368;14.658;2024-03-07T01:36:10;27.90;;;18.00;;
22571;SDS011;11452;53.368;14.658;2024-03-07T01:41:16;27.40;;;21.43;;
22571;SDS011;11452;53.368;14.658;2024-03-07T01:46:21;28.40;;;21.57;;
22571;SDS011;11452;53.368;14.658;2024-03-07T01:51:28;32.10;;;20.77;;
22571;SDS011;11452;53.368;14.658;2024-03-07T01:56:34;28.57;;;18.03;;
22571;SDS011;11452;53.368;14.658;2024-03-07T02:01:41;31.10;;;18.43;;
22571;SDS011;11452;53.368;14.658;2024-03-07T02:06:50;32.40;;;19.60;;
22571;SDS011;11452;53.368;14.658;2024-03-07T02:11:57;31.13;;;22.00;;
22571;SDS011;11452;53.368;14.658;2024-03-07T02:17:03;28.80;;;22.40;;
22571;SDS011;11452;53.368;14.658;2024-03-07T02:22:09;29.07;;;20.73;;
22571;SDS011;11452;53.368;14.658;2024-03-07T02:27:15;26.10;;;19.70;;
22571;SDS011;11452;53.368;14.658;2024-03-07T02:32:20;27.53;;;19.70;;
22571;SDS011;11452;53.368;14.658;2024-03-07T02:37:27;24.13;;;19.23;;
22571;SDS011;11452;53.368;14.658;2024-03-07T02:42:32;34.10;;;19.87;;
22571;SDS011;11452;53.368;14.658;2024-03-07T02:47:39;38.70;;;27.03;;
22571;SDS011;11452;53.368;14.658;2024-03-07T02:52:45;31.53;;;22.30;;
22571;SDS011;11452;53.368;14.658;2024-03-07T02:57:51;28.13;;;20.43;;
22571;SDS011;11452;53.368;14.658;2024-03-07T03:02:57;25.20;;;18.27;;
22571;SDS011;11452;53.368;14.658;2024-03-07T03:08:03;27.20;;;19.73;;
22571;SDS011;11452;53.368;14.658;2024-03-07T03:13:11;24.43;;;17.90;;
22571;SDS011;11452;53.368;14.658;2024-03-07T03:18:16;21.70;;;17.53;;
22571;SDS011;11452;53.368;14.658;2024-03-07T03:23:23;24.07;;;19.00;;
22571;SDS011;11452;53.368;14.658;2024-03-07T03:28:29;22.20;;;18.40;;
22571;SDS011;11452;53.368;14.658;2024-03-07T03:33:35;19.50;;;17.00;;
22571;SDS011;11452;53.368;14.658;2024-03-07T03:38:41;20.37;;;16.57;;
22571;SDS011;11452;53.368;14.658;2024-03-07T03:43:47;20.63;;;17.50;;
22571;SDS011;11452;53.368;14.658;2024-03-07T03:48:53;24.50;;;18.37;;
22571;SDS011;11452;53.368;14.658;2024-03-07T03:53:58;23.43;;;18.57;;
22571;SDS011;11452;53.368;14.658;2024-03-07T03:59:04;22.73;;;18.47;;
22571;SDS011;11452;53.368;14.658;2024-03-07T04:04:10;22.07;;;18.77;;
22571;SDS011;11452;53.368;14.658;2024-03-07T04:09:16;31.73;;;22.13;;
22571;SDS011;11452;53.368;14.658;2024-03-07T04:14:23;26.63;;;18.93;;
22571;SDS011;11452;53.368;14.658;2024-03-07T04:19:35;22.70;;;20.13;;
22571;SDS011;11452;53.368;14.658;2024-03-07T04:24:42;24.07;;;19.30;;
22571;SDS011;11452;53.368;14.658;2024-03-07T04:29:48;21.17;;;17.97;;
22571;SDS011;11452;53.368;14.658;2024-03-07T04:34:54;22.17;;;19.43;;
22571;SDS011;11452;53.368;14.658;2024-03-07T04:40:03;27.70;;;21.70;;
22571;SDS011;11452;53.368;14.658;2024-03-07T04:45:23;20.23;;;16.57;;
22571;SDS011;11452;53.368;14.658;2024-03-07T04:50:28;20.53;;;17.23;;
22571;SDS011;11452;53.368;14.658;2024-03-07T04:55:35;21.43;;;16.63;;
22571;SDS011;11452;53.368;14.658;2024-03-07T05:00:40;21.83;;;16.93;;
22571;SDS011;11452;53.368;14.658;2024-03-07T05:05:46;18.43;;;15.63;;
22571;SDS011;11452;53.368;14.658;2024-03-07T05:10:52;22.07;;;18.03;;
22571;SDS011;11452;53.368;14.658;2024-03-07T05:15:58;17.83;;;15.33;;
22571;SDS011;11452;53.368;14.658;2024-03-07T05:21:05;16.80;;;14.87;;
22571;SDS011;11452;53.368;14.658;2024-03-07T05:26:12;18.23;;;15.43;;
22571;SDS011;11452;53.368;14.658;2024-03-07T05:31:19;18.57;;;15.33;;
22571;SDS011;11452;53.368;14.658;2024-03-07T05:36:25;17.20;;;15.40;;
22571;SDS011;11452;53.368;14.658;2024-03-07T05:41:30;17.90;;;15.37;;
22571;SDS011;11452;53.368;14.658;2024-03-07T05:46:36;18.57;;;15.33;;
22571;SDS011;11452;53.368;14.658;2024-03-07T05:51:50;18.53;;;15.63;;
22571;SDS011;11452;53.368;14.658;2024-03-07T05:56:56;17.63;;;15.27;;
22571;SDS011;11452;53.368;14.658;2024-03-07T06:02:02;18.33;;;14.57;;
22571;SDS011;11452;53.368;14.658;2024-03-07T06:07:09;18.73;;;13.47;;
22571;SDS011;11452;53.368;14.658;2024-03-07T06:12:14;21.80;;;15.77;;
22571;SDS011;11452;53.368;14.658;2024-03-07T06:17:23;20.87;;;14.23;;
22571;SDS011;11452;53.368;14.658;2024-03-07T06:22:29;21.87;;;14.20;;
22571;SDS011;11452;53.368;14.658;2024-03-07T06:27:35;17.13;;;14.07;;
22571;SDS011;11452;53.368;14.658;2024-03-07T06:32:42;24.57;;;15.40;;
22571;SDS011;11452;53.368;14.658;2024-03-07T06:37:48;22.13;;;14.13;;
22571;SDS011;11452;53.368;14.658;2024-03-07T06:42:54;26.17;;;16.17;;
22571;SDS011;11452;53.368;14.658;2024-03-07T06:48:02;23.03;;;15.50;;
22571;SDS011;11452;53.368;14.658;2024-03-07T06:53:11;23.30;;;15.63;;
22571;SDS011;11452;53.368;14.658;2024-03-07T06:58:23;21.67;;;17.80;;
22571;SDS011;11452;53.368;14.658;2024-03-07T07:03:26;24.77;;;15.67;;
22571;SDS011;11452;53.368;14.658;2024-03-07T07:08:32;20.77;;;14.17;;
22571;SDS011;11452;53.368;14.658;2024-03-07T07:13:39;20.67;;;14.17;;
22571;SDS011;11452;53.368;14.658;2024-03-07T07:18:47;20.30;;;14.60;;
22571;SDS011;11452;53.368;14.658;2024-03-07T07:23:54;20.37;;;13.97;;
22571;SDS011;11452;53.368;14.658;2024-03-07T07:28:59;22.83;;;14.90;;
22571;SDS011;11452;53.368;14.658;2024-03-07T07:34:08;21.53;;;15.47;;
22571;SDS011;11452;53.368;14.658;2024-03-07T07:39:15;19.40;;;14.17;;
22571;SDS011;11452;53.368;14.658;2024-03-07T07:44:21;20.83;;;13.93;;
22571;SDS011;11452;53.368;14.658;2024-03-07T07:49:27;18.90;;;13.83;;
22571;SDS011;11452;53.368;14.658;2024-03-07T07:54:33;19.13;;;13.13;;
22571;SDS011;11452;53.368;14.658;2024-03-07T07:59:39;20.83;;;14.60;;
22571;SDS011;11452;53.368;14.658;2024-03-07T08:04:45;19.67;;;14.10;;
22571;SDS011;11452;53.368;14.658;2024-03-07T08:09:53;22.07;;;13.77;;
22571;SDS011;11452;53.368;14.658;2024-03-07T08:15:00;21.00;;;15.97;;
22571;SDS011;11452;53.368;14.658;2024-03-07T08:20:06;20.13;;;14.03;;
22571;SDS011;11452;53.368;14.658;2024-03-07T08:25:14;19.43;;;13.83;;
22571;SDS011;11452;53.368;14.658;2024-03-07T08:30:22;19.57;;;14.17;;
22571;SDS011;11452;53.368;14.658;2024-03-07T08:35:28;22.33;;;14.77;;
22571;SDS011;11452;53.368;14.658;2024-03-07T08:40:34;19.20;;;13.50;;
22571;SDS011;11452;53.368;14.658;2024-03-07T08:45:40;19.57;;;14.00;;
22571;SDS011;11452;53.368;14.658;2024-03-07T08:50:46;18.70;;;13.10;;
22571;SDS011;11452;53.368;14.658;2024-03-07T08:55:52;19.87;;;13.27;;
22571;SDS011;11452;53.368;14.658;2024-03-07T09:00:58;18.47;;;14.60;;
22571;SDS011;11452;53.368;14.658;2024-03-07T09:06:04;18.37;;;13.87;;
22571;SDS011;11452;53.368;14.658;2024-03-07T09:11:10;17.73;;;13.77;;
22571;SDS011;11452;53.368;14.658;2024-03-07T09:16:17;15.50;;;12.30;;
22571;SDS011;11452;53.368;14.658;2024-03-07T09:21:23;16.03;;;10.83;;
22571;SDS011;11452;53.368;14.658;2024-03-07T09:26:29;15.90;;;12.60;;
22571;SDS011;11452;53.368;14.658;2024-03-07T09:31:37;14.60;;;10.67;;
22571;SDS011;11452;53.368;14.658;2024-03-07T09:36:44;14.00;;;11.80;;
22571;SDS011;11452;53.368;14.658;2024-03-07T09:41:51;13.10;;;11.03;;
22571;SDS011;11452;53.368;14.658;2024-03-07T09:46:58;17.07;;;11.00;;
22571;SDS011;11452;53.368;14.658;2024-03-07T09:52:06;16.13;;;11.63;;
22571;SDS011;11452;53.368;14.658;2024-03-07T09:57:15;12.77;;;8.73;;
22571;SDS011;11452;53.368;14.658;2024-03-07T10:02:22;13.97;;;10.53;;
22571;SDS011;11452;53.368;14.658;2024-03-07T10:07:30;11.67;;;9.20;;
22571;SDS011;11452;53.368;14.658;2024-03-07T10:12:36;11.83;;;9.10;;
22571;SDS011;11452;53.368;14.658;2024-03-07T10:17:43;9.23;;;8.07;;
22571;SDS011;11452;53.368;14.658;2024-03-07T10:22:50;10.17;;;8.03;;
22571;SDS011;11452;53.368;14.658;2024-03-07T10:27:56;9.93;;;7.13;;
22571;SDS011;11452;53.368;14.658;2024-03-07T10:33:04;10.83;;;8.00;;
22571;SDS011;11452;53.368;14.658;2024-03-07T10:38:11;10.17;;;7.80;;
22571;SDS011;11452;53.368;14.658;2024-03-07T10:43:18;13.00;;;9.30;;
22571;SDS011;11452;53.368;14.658;2024-03-07T10:48:26;10.67;;;9.33;;
22571;SDS011;11452;53.368;14.658;2024-03-07T10:53:45;10.57;;;8.23;;
22571;SDS011;11452;53.368;14.658;2024-03-07T11:04:18;12.83;;;9.03;;
22571;SDS011;11452;53.368;14.658;2024-03-07T11:09:25;12.37;;;9.00;;
22571;SDS011;11452;53.368;14.658;2024-03-07T11:14:36;12.03;;;8.30;;
22571;SDS011;11452;53.368;14.658;2024-03-07T11:19:44;12.10;;;8.97;;
22571;SDS011;11452;53.368;14.658;2024-03-07T11:25:00;12.53;;;9.13;;
22571;SDS011;11452;53.368;14.658;2024-03-07T11:30:11;11.80;;;9.27;;
22571;SDS011;11452;53.368;14.658;2024-03-07T11:35:17;11.00;;;8.87;;
22571;SDS011;11452;53.368;14.658;2024-03-07T11:45:41;9.90;;;8.47;;
22571;SDS011;11452;53.368;14.658;2024-03-07T11:50:50;9.20;;;7.87;;
22571;SDS011;11452;53.368;14.658;2024-03-07T11:55:58;11.40;;;8.53;;
22571;SDS011;11452;53.368;14.658;2024-03-07T12:01:06;10.00;;;8.03;;
22571;SDS011;11452;53.368;14.658;2024-03-07T12:06:14;12.93;;;8.33;;
22571;SDS011;11452;53.368;14.658;2024-03-07T12:11:20;8.63;;;7.37;;
22571;SDS011;11452;53.368;14.658;2024-03-07T12:16:28;8.47;;;7.30;;
22571;SDS011;11452;53.368;14.658;2024-03-07T12:21:36;9.73;;;7.80;;
22571;SDS011;11452;53.368;14.658;2024-03-07T12:26:42;9.73;;;7.90;;
22571;SDS011;11452;53.368;14.658;2024-03-07T12:31:48;12.53;;;8.40;;
22571;SDS011;11452;53.368;14.658;2024-03-07T12:36:56;12.07;;;8.57;;
22571;SDS011;11452;53.368;14.658;2024-03-07T12:42:03;10.83;;;8.27;;
22571;SDS011;11452;53.368;14.658;2024-03-07T12:47:09;8.97;;;7.10;;
22571;SDS011;11452;53.368;14.658;2024-03-07T12:52:17;11.50;;;9.83;;
22571;SDS011;11452;53.368;14.658;2024-03-07T12:57:22;11.20;;;8.73;;
22571;SDS011;11452;53.368;14.658;2024-03-07T13:02:28;12.03;;;9.70;;
22571;SDS011;11452;53.368;14.658;2024-03-07T13:07:34;13.07;;;9.20;;
22571;SDS011;11452;53.368;14.658;2024-03-07T13:12:46;11.47;;;9.10;;
22571;SDS011;11452;53.368;14.658;2024-03-07T13:17:49;11.07;;;9.43;;
22571;SDS011;11452;53.368;14.658;2024-03-07T13:22:57;10.90;;;8.80;;
22571;SDS011;11452;53.368;14.658;2024-03-07T13:28:06;10.23;;;8.80;;
22571;SDS011;11452;53.368;14.658;2024-03-07T13:33:15;11.80;;;8.63;;
22571;SDS011;11452;53.368;14.658;2024-03-07T13:38:22;10.77;;;8.47;;
22571;SDS011;11452;53.368;14.658;2024-03-07T13:43:29;10.43;;;8.60;;
22571;SDS011;11452;53.368;14.658;2024-03-07T13:48:38;11.17;;;9.13;;
22571;SDS011;11452;53.368;14.658;2024-03-07T13:53:45;11.07;;;8.80;;
22571;SDS011;11452;53.368;14.658;2024-03-07T14:26:02;9.80;;;7.73;;
22571;SDS011;11452;53.368;14.658;2024-03-07T14:31:23;10.63;;;7.80;;
22571;SDS011;11452;53.368;14.658;2024-03-07T14:36:45;10.03;;;7.60;;
22571;SDS011;11452;53.368;14.658;2024-03-07T14:41:56;7.67;;;6.83;;
22571;SDS011;11452;53.368;14.658;2024-03-07T14:47:04;9.33;;;7.93;;
22571;SDS011;11452;53.368;14.658;2024-03-07T14:52:13;8.67;;;6.97;;
22571;SDS011;11452;53.368;14.658;2024-03-07T14:57:20;13.57;;;7.47;;
22571;SDS011;11452;53.368;14.658;2024-03-07T15:02:27;8.30;;;7.27;;
22571;SDS011;11452;53.368;14.658;2024-03-07T15:07:33;9.20;;;7.00;;
22571;SDS011;11452;53.368;14.658;2024-03-07T15:12:39;10.87;;;7.40;;
22571;SDS011;11452;53.368;14.658;2024-03-07T15:17:44;10.00;;;8.20;;
22571;SDS011;11452;53.368;14.658;2024-03-07T15:22:59;10.50;;;7.73;;
22571;SDS011;11452;53.368;14.658;2024-03-07T15:28:03;12.60;;;7.40;;
22571;SDS011;11452;53.368;14.658;2024-03-07T15:33:08;10.97;;;8.07;;
22571;SDS011;11452;53.368;14.658;2024-03-07T15:38:15;9.13;;;7.23;;
22571;SDS011;11452;53.368;14.658;2024-03-07T15:43:22;8.43;;;6.87;;
22571;SDS011;11452;53.368;14.658;2024-03-07T15:48:28;8.97;;;7.53;;
22571;SDS011;11452;53.368;14.658;2024-03-07T15:53:34;10.60;;;6.40;;
22571;SDS011;11452;53.368;14.658;2024-03-07T15:58:40;10.87;;;8.03;;
22571;SDS011;11452;53.368;14.658;2024-03-07T16:03:46;8.70;;;6.93;;
22571;SDS011;11452;53.368;14.658;2024-03-07T16:08:52;10.03;;;8.33;;
22571;SDS011;11452;53.368;14.658;2024-03-07T16:13:59;12.47;;;8.67;;
22571;SDS011;11452;53.368;14.658;2024-03-07T16:19:05;10.80;;;8.77;;
22571;SDS011;11452;53.368;14.658;2024-03-07T16:24:12;11.17;;;8.60;;
22571;SDS011;11452;53.368;14.658;2024-03-07T16:29:19;10.90;;;8.70;;
22571;SDS011;11452;53.368;14.658;2024-03-07T16:34:26;11.17;;;7.60;;
22571;SDS011;11452;53.368;14.658;2024-03-07T16:39:32;8.00;;;6.80;;
22571;SDS011;11452;53.368;14.658;2024-03-07T16:44:37;9.43;;;7.77;;
22571;SDS011;11452;53.368;14.658;2024-03-07T16:49:43;11.30;;;7.27;;
22571;SDS011;11452;53.368;14.658;2024-03-07T16:54:49;7.60;;;6.77;;
22571;SDS011;11452;53.368;14.658;2024-03-07T16:59:56;9.63;;;8.10;;
22571;SDS011;11452;53.368;14.658;2024-03-07T17:05:01;11.77;;;8.50;;
22571;SDS011;11452;53.368;14.658;2024-03-07T17:10:13;10.90;;;7.47;;
22571;SDS011;11452;53.368;14.658;2024-03-07T17:15:19;10.13;;;7.97;;
22571;SDS011;11452;53.368;14.658;2024-03-07T17:20:26;13.83;;;10.20;;
22571;SDS011;11452;53.368;14.658;2024-03-07T17:25:33;15.27;;;10.90;;
22571;SDS011;11452;53.368;14.658;2024-03-07T17:30:40;12.30;;;8.77;;
22571;SDS011;11452;53.368;14.658;2024-03-07T17:35:46;11.60;;;8.27;;
22571;SDS011;11452;53.368;14.658;2024-03-07T17:40:51;10.87;;;7.80;;
22571;SDS011;11452;53.368;14.658;2024-03-07T17:45:57;8.67;;;7.33;;
22571;SDS011;11452;53.368;14.658;2024-03-07T17:51:03;12.83;;;7.70;;
22571;SDS011;11452;53.368;14.658;2024-03-07T17:56:10;11.00;;;7.20;;
22571;SDS011;11452;53.368;14.658;2024-03-07T18:01:17;11.37;;;6.77;;
22571;SDS011;11452;53.368;14.658;2024-03-07T18:06:22;9.90;;;7.07;;
22571;SDS011;11452;53.368;14.658;2024-03-07T18:11:28;9.03;;;6.80;;
22571;SDS011;11452;53.368;14.658;2024-03-07T18:16:36;10.90;;;7.33;;
22571;SDS011;11452;53.368;14.658;2024-03-07T18:21:41;18.37;;;12.03;;
22571;SDS011;11452;53.368;14.658;2024-03-07T18:26:47;17.73;;;12.00;;
22571;SDS011;11452;53.368;14.658;2024-03-07T18:31:53;16.13;;;11.53;;
22571;SDS011;11452;53.368;14.658;2024-03-07T18:36:59;20.00;;;13.00;;
22571;SDS011;11452;53.368;14.658;2024-03-07T18:42:06;13.77;;;10.43;;
22571;SDS011;11452;53.368;14.658;2024-03-07T18:47:13;14.57;;;10.93;;
22571;SDS011;11452;53.368;14.658;2024-03-07T18:52:20;16.27;;;10.37;;
22571;SDS011;11452;53.368;14.658;2024-03-07T18:57:26;13.13;;;10.03;;
22571;SDS011;11452;53.368;14.658;2024-03-07T19:02:31;12.80;;;9.33;;
22571;SDS011;11452;53.368;14.658;2024-03-07T19:07:37;18.93;;;12.50;;
22571;SDS011;11452;53.368;14.658;2024-03-07T19:12:43;19.30;;;12.33;;
22571;SDS011;11452;53.368;14.658;2024-03-07T19:17:49;16.03;;;10.33;;
22571;SDS011;11452;53.368;14.658;2024-03-07T19:22:55;15.80;;;11.37;;
22571;SDS011;11452;53.368;14.658;2024-03-07T19:28:01;16.20;;;10.73;;
22571;SDS011;11452;53.368;14.658;2024-03-07T19:33:08;14.67;;;10.60;;
22571;SDS011;11452;53.368;14.658;2024-03-07T19:38:23;14.33;;;10.23;;
22571;SDS011;11452;53.368;14.658;2024-03-07T19:43:29;15.47;;;9.83;;
22571;SDS011;11452;53.368;14.658;2024-03-07T19:48:35;13.53;;;9.10;;
22571;SDS011;11452;53.368;14.658;2024-03-07T19:53:41;15.63;;;10.53;;
22571;SDS011;11452;53.368;14.658;2024-03-07T19:58:47;15.77;;;10.87;;
22571;SDS011;11452;53.368;14.658;2024-03-07T20:03:53;18.33;;;11.63;;
22571;SDS011;11452;53.368;14.658;2024-03-07T20:08:58;16.07;;;11.43;;
22571;SDS011;11452;53.368;14.658;2024-03-07T20:14:06;17.57;;;11.40;;
22571;SDS011;11452;53.368;14.658;2024-03-07T20:19:11;15.40;;;10.83;;
22571;SDS011;11452;53.368;14.658;2024-03-07T20:24:17;18.90;;;11.73;;
22571;SDS011;11452;53.368;14.658;2024-03-07T20:29:23;17.07;;;10.23;;
22571;SDS011;11452;53.368;14.658;2024-03-07T20:34:29;18.17;;;12.00;;
22571;SDS011;11452;53.368;14.658;2024-03-07T20:39:35;19.27;;;12.43;;
22571;SDS011;11452;53.368;14.658;2024-03-07T20:44:43;14.30;;;10.57;;
22571;SDS011;11452;53.368;14.658;2024-03-07T20:49:49;15.13;;;10.23;;
22571;SDS011;11452;53.368;14.658;2024-03-07T20:54:55;16.00;;;11.20;;
22571;SDS011;11452;53.368;14.658;2024-03-07T21:00:03;15.63;;;9.47;;
22571;SDS011;11452;53.368;14.658;2024-03-07T21:05:10;15.20;;;10.47;;
22571;SDS011;11452;53.368;14.658;2024-03-07T21:10:17;14.77;;;9.60;;
22571;SDS011;11452;53.368;14.658;2024-03-07T21:15:24;14.27;;;9.17;;
22571;SDS011;11452;53.368;14.658;2024-03-07T21:20:30;12.90;;;8.73;;
22571;SDS011;11452;53.368;14.658;2024-03-07T21:25:36;10.50;;;8.27;;
22571;SDS011;11452;53.368;14.658;2024-03-07T21:30:42;11.53;;;9.63;;
22571;SDS011;11452;53.368;14.658;2024-03-07T21:35:48;15.30;;;10.53;;
22571;SDS011;11452;53.368;14.658;2024-03-07T21:40:54;15.33;;;10.07;;
22571;SDS011;11452;53.368;14.658;2024-03-07T21:46:00;13.30;;;11.10;;
22571;SDS011;11452;53.368;14.658;2024-03-07T21:51:10;14.80;;;10.97;;
22571;SDS011;11452;53.368;14.658;2024-03-07T21:56:25;11.57;;;10.30;;
22571;SDS011;11452;53.368;14.658;2024-03-07T22:01:39;12.60;;;9.83;;
22571;SDS011;11452;53.368;14.658;2024-03-07T22:06:45;15.03;;;8.47;;
22571;SDS011;11452;53.368;14.658;2024-03-07T22:11:50;13.93;;;9.90;;
22571;SDS011;11452;53.368;14.658;2024-03-07T22:16:56;13.97;;;9.37;;
22571;SDS011;11452;53.368;14.658;2024-03-07T22:22:03;13.10;;;9.93;;
22571;SDS011;11452;53.368;14.658;2024-03-07T22:27:09;13.00;;;10.30;;
22571;SDS011;11452;53.368;14.658;2024-03-07T22:32:16;15.53;;;10.00;;
22571;SDS011;11452;53.368;14.658;2024-03-07T22:37:21;11.60;;;9.17;;
22571;SDS011;11452;53.368;14.658;2024-03-07T22:42:28;13.43;;;9.97;;
22571;SDS011;11452;53.368;14.658;2024-03-07T22:47:35;13.57;;;9.73;;
22571;SDS011;11452;53.368;14.658;2024-03-07T22:52:41;15.97;;;11.53;;
22571;SDS011;11452;53.368;14.658;2024-03-07T22:57:47;14.37;;;10.83;;
22571;SDS011;11452;53.368;14.658;2024-03-07T23:02:53;14.73;;;10.13;;
22571;SDS011;11452;53.368;14.658;2024-03-07T23:08:02;11.77;;;9.73;;
22571;SDS011;11452;53.368;14.658;2024-03-07T23:13:08;15.60;;;9.73;;
22571;SDS011;11452;53.368;14.658;2024-03-07T23:18:14;12.23;;;9.77;;
22571;SDS011;11452;53.368;14.658;2024-03-07T23:23:20;12.67;;;9.90;;
22571;SDS011;11452;53.368;14.658;2024-03-07T23:28:27;12.60;;;9.40;;
22571;SDS011;11452;53.368;14.658;2024-03-07T23:33:33;13.43;;;9.50;;
22571;SDS011;11452;53.368;14.658;2024-03-07T23:38:40;13.03;;;9.77;;
22571;SDS011;11452;53.368;14.658;2024-03-07T23:43:48;12.47;;;10.83;;
22571;SDS011;11452;53.368;14.658;2024-03-07T23:48:54;13.23;;;10.73;;
22571;SDS011;11452;53.368;14.658;2024-03-07T23:54:01;12.77;;;11.27;;
22571;SDS011;11452;53.368;14.658;2024-03-07T23:59:09;12.80;;;10.93;;
